sensor_id;sensor_type;location;lat;lon;timestamp;P1;durP1;ratioP1;P2;durP2;ratioP2
75655;SDS011;64252;51.094;13.714;2024-03-08T00:01:18;24.70;;;12.23;;
75655;SDS011;64252;51.094;13.714;2024-03-08T00:03:44;24.75;;;10.77;;
75655;SDS011;64252;51.094;13.714;2024-03-08T00:06:09;30.27;;;14.40;;
75655;SDS011;64252;51.094;13.714;2024-03-08T00:08:36;22.90;;;10.98;;
75655;SDS011;64252;51.094;13.714;2024-03-08T00:11:01;28.95;;;13.15;;
75655;SDS011;64252;51.094;13.714;2024-03-08T00:13:27;30.27;;;14.75;;
75655;SDS011;64252;51.094;13.714;2024-03-08T00:15:53;29.65;;;13.77;;
75655;SDS011;64252;51.094;13.714;2024-03-08T00:18:18;30.30;;;13.05;;
75655;SDS011;64252;51.094;13.714;2024-03-08T00:20:44;33.30;;;14.50;;
75655;SDS011;64252;51.094;13.714;2024-03-08T00:23:10;32.83;;;14.68;;
75655;SDS011;64252;51.094;13.714;2024-03-08T00:25:36;33.17;;;16.33;;
75655;SDS011;64252;51.094;13.714;2024-03-08T00:28:02;27.88;;;13.85;;
75655;SDS011;64252;51.094;13.714;2024-03-08T00:30:30;34.35;;;16.15;;
75655;SDS011;64252;51.094;13.714;2024-03-08T00:32:56;30.77;;;15.68;;
75655;SDS011;64252;51.094;13.714;2024-03-08T00:35:21;30.33;;;14.82;;
75655;SDS011;64252;51.094;13.714;2024-03-08T00:37:47;32.08;;;14.05;;
75655;SDS011;64252;51.094;13.714;2024-03-08T00:40:13;28.08;;;12.80;;
75655;SDS011;64252;51.094;13.714;2024-03-08T00:42:39;29.73;;;14.02;;
75655;SDS011;64252;51.094;13.714;2024-03-08T00:45:06;27.95;;;13.50;;
75655;SDS011;64252;51.094;13.714;2024-03-08T00:47:32;30.92;;;12.88;;
75655;SDS011;64252;51.094;13.714;2024-03-08T00:49:58;33.42;;;14.27;;
75655;SDS011;64252;51.094;13.714;2024-03-08T00:52:23;35.60;;;14.73;;
75655;SDS011;64252;51.094;13.714;2024-03-08T00:54:49;29.83;;;14.68;;
75655;SDS011;64252;51.094;13.714;2024-03-08T00:57:15;30.20;;;14.63;;
75655;SDS011;64252;51.094;13.714;2024-03-08T00:59:40;32.70;;;14.27;;
75655;SDS011;64252;51.094;13.714;2024-03-08T01:02:06;26.13;;;13.88;;
75655;SDS011;64252;51.094;13.714;2024-03-08T01:04:31;29.23;;;13.88;;
75655;SDS011;64252;51.094;13.714;2024-03-08T01:06:58;27.63;;;13.52;;
75655;SDS011;64252;51.094;13.714;2024-03-08T01:09:25;31.30;;;15.35;;
75655;SDS011;64252;51.094;13.714;2024-03-08T01:11:52;28.75;;;13.95;;
75655;SDS011;64252;51.094;13.714;2024-03-08T01:14:19;36.88;;;14.15;;
75655;SDS011;64252;51.094;13.714;2024-03-08T01:16:47;33.55;;;14.55;;
75655;SDS011;64252;51.094;13.714;2024-03-08T01:19:14;30.98;;;14.07;;
75655;SDS011;64252;51.094;13.714;2024-03-08T01:21:40;26.48;;;12.90;;
75655;SDS011;64252;51.094;13.714;2024-03-08T01:24:06;30.52;;;14.55;;
75655;SDS011;64252;51.094;13.714;2024-03-08T01:26:32;28.15;;;11.93;;
75655;SDS011;64252;51.094;13.714;2024-03-08T01:28:59;29.55;;;14.55;;
75655;SDS011;64252;51.094;13.714;2024-03-08T01:31:26;26.23;;;11.07;;
75655;SDS011;64252;51.094;13.714;2024-03-08T01:33:54;29.17;;;14.40;;
75655;SDS011;64252;51.094;13.714;2024-03-08T01:36:19;31.67;;;14.27;;
75655;SDS011;64252;51.094;13.714;2024-03-08T01:38:45;31.08;;;13.45;;
75655;SDS011;64252;51.094;13.714;2024-03-08T01:41:10;34.15;;;15.38;;
75655;SDS011;64252;51.094;13.714;2024-03-08T01:43:37;27.70;;;13.38;;
75655;SDS011;64252;51.094;13.714;2024-03-08T01:46:03;32.60;;;14.77;;
75655;SDS011;64252;51.094;13.714;2024-03-08T01:48:30;28.10;;;14.10;;
75655;SDS011;64252;51.094;13.714;2024-03-08T01:50:57;35.45;;;15.63;;
75655;SDS011;64252;51.094;13.714;2024-03-08T01:53:26;35.17;;;14.98;;
75655;SDS011;64252;51.094;13.714;2024-03-08T01:55:57;29.15;;;13.80;;
75655;SDS011;64252;51.094;13.714;2024-03-08T01:58:23;32.13;;;16.33;;
75655;SDS011;64252;51.094;13.714;2024-03-08T02:03:21;30.67;;;13.45;;
75655;SDS011;64252;51.094;13.714;2024-03-08T02:05:47;30.65;;;14.43;;
75655;SDS011;64252;51.094;13.714;2024-03-08T02:08:15;35.33;;;16.05;;
75655;SDS011;64252;51.094;13.714;2024-03-08T02:10:41;32.08;;;15.02;;
75655;SDS011;64252;51.094;13.714;2024-03-08T02:13:12;34.30;;;14.98;;
75655;SDS011;64252;51.094;13.714;2024-03-08T02:18:24;33.53;;;14.50;;
75655;SDS011;64252;51.094;13.714;2024-03-08T02:20:57;36.28;;;15.95;;
75655;SDS011;64252;51.094;13.714;2024-03-08T02:23:24;28.42;;;12.93;;
75655;SDS011;64252;51.094;13.714;2024-03-08T02:25:51;30.10;;;13.23;;
75655;SDS011;64252;51.094;13.714;2024-03-08T02:28:17;26.48;;;11.95;;
75655;SDS011;64252;51.094;13.714;2024-03-08T02:30:48;26.48;;;12.63;;
75655;SDS011;64252;51.094;13.714;2024-03-08T02:35:42;35.58;;;15.07;;
75655;SDS011;64252;51.094;13.714;2024-03-08T02:38:11;35.80;;;16.55;;
75655;SDS011;64252;51.094;13.714;2024-03-08T02:40:44;35.08;;;16.08;;
75655;SDS011;64252;51.094;13.714;2024-03-08T02:43:12;36.22;;;17.23;;
75655;SDS011;64252;51.094;13.714;2024-03-08T02:45:39;38.05;;;17.27;;
75655;SDS011;64252;51.094;13.714;2024-03-08T02:48:07;33.33;;;17.15;;
75655;SDS011;64252;51.094;13.714;2024-03-08T02:50:33;34.10;;;15.68;;
75655;SDS011;64252;51.094;13.714;2024-03-08T02:53:00;35.03;;;16.17;;
75655;SDS011;64252;51.094;13.714;2024-03-08T02:55:26;33.65;;;16.15;;
75655;SDS011;64252;51.094;13.714;2024-03-08T02:57:52;35.92;;;17.00;;
75655;SDS011;64252;51.094;13.714;2024-03-08T03:00:21;33.80;;;16.38;;
75655;SDS011;64252;51.094;13.714;2024-03-08T03:02:51;34.15;;;16.33;;
75655;SDS011;64252;51.094;13.714;2024-03-08T03:05:22;34.17;;;16.67;;
75655;SDS011;64252;51.094;13.714;2024-03-08T03:07:48;33.90;;;15.63;;
75655;SDS011;64252;51.094;13.714;2024-03-08T03:10:14;36.05;;;18.00;;
75655;SDS011;64252;51.094;13.714;2024-03-08T03:12:45;34.47;;;17.27;;
75655;SDS011;64252;51.094;13.714;2024-03-08T03:15:11;37.17;;;17.08;;
75655;SDS011;64252;51.094;13.714;2024-03-08T03:17:38;34.70;;;16.52;;
75655;SDS011;64252;51.094;13.714;2024-03-08T03:20:08;37.97;;;16.92;;
75655;SDS011;64252;51.094;13.714;2024-03-08T03:22:39;34.10;;;17.05;;
75655;SDS011;64252;51.094;13.714;2024-03-08T03:25:12;37.83;;;17.23;;
75655;SDS011;64252;51.094;13.714;2024-03-08T03:27:37;37.30;;;17.13;;
75655;SDS011;64252;51.094;13.714;2024-03-08T03:30:04;37.67;;;17.15;;
75655;SDS011;64252;51.094;13.714;2024-03-08T03:32:49;37.20;;;17.23;;
75655;SDS011;64252;51.094;13.714;2024-03-08T03:35:19;39.88;;;17.33;;
75655;SDS011;64252;51.094;13.714;2024-03-08T03:37:49;35.55;;;16.10;;
75655;SDS011;64252;51.094;13.714;2024-03-08T03:40:33;33.00;;;14.63;;
75655;SDS011;64252;51.094;13.714;2024-03-08T03:42:59;30.33;;;14.60;;
75655;SDS011;64252;51.094;13.714;2024-03-08T03:45:26;37.50;;;17.73;;
75655;SDS011;64252;51.094;13.714;2024-03-08T03:47:52;41.00;;;17.48;;
75655;SDS011;64252;51.094;13.714;2024-03-08T03:50:18;36.92;;;17.42;;
75655;SDS011;64252;51.094;13.714;2024-03-08T03:52:45;39.85;;;17.88;;
75655;SDS011;64252;51.094;13.714;2024-03-08T03:55:12;32.95;;;15.80;;
75655;SDS011;64252;51.094;13.714;2024-03-08T03:57:38;33.50;;;15.90;;
75655;SDS011;64252;51.094;13.714;2024-03-08T04:00:04;34.65;;;17.85;;
75655;SDS011;64252;51.094;13.714;2024-03-08T04:02:38;33.30;;;14.07;;
75655;SDS011;64252;51.094;13.714;2024-03-08T04:05:06;33.05;;;16.00;;
75655;SDS011;64252;51.094;13.714;2024-03-08T04:07:33;40.10;;;18.00;;
75655;SDS011;64252;51.094;13.714;2024-03-08T04:10:01;32.20;;;14.77;;
75655;SDS011;64252;51.094;13.714;2024-03-08T04:12:27;33.42;;;16.08;;
75655;SDS011;64252;51.094;13.714;2024-03-08T04:14:55;32.95;;;15.15;;
75655;SDS011;64252;51.094;13.714;2024-03-08T04:17:21;36.42;;;16.33;;
75655;SDS011;64252;51.094;13.714;2024-03-08T04:19:47;39.30;;;17.23;;
75655;SDS011;64252;51.094;13.714;2024-03-08T04:22:13;38.13;;;17.40;;
75655;SDS011;64252;51.094;13.714;2024-03-08T04:24:39;37.17;;;16.23;;
75655;SDS011;64252;51.094;13.714;2024-03-08T04:27:06;34.58;;;16.42;;
75655;SDS011;64252;51.094;13.714;2024-03-08T04:29:32;29.35;;;15.48;;
75655;SDS011;64252;51.094;13.714;2024-03-08T04:31:58;36.30;;;16.95;;
75655;SDS011;64252;51.094;13.714;2024-03-08T04:34:23;33.72;;;16.25;;
75655;SDS011;64252;51.094;13.714;2024-03-08T04:36:49;32.90;;;14.30;;
75655;SDS011;64252;51.094;13.714;2024-03-08T04:39:15;32.35;;;14.95;;
75655;SDS011;64252;51.094;13.714;2024-03-08T04:41:41;36.90;;;16.98;;
75655;SDS011;64252;51.094;13.714;2024-03-08T04:44:09;36.42;;;17.63;;
75655;SDS011;64252;51.094;13.714;2024-03-08T04:46:35;36.53;;;17.10;;
75655;SDS011;64252;51.094;13.714;2024-03-08T04:49:01;41.88;;;17.88;;
75655;SDS011;64252;51.094;13.714;2024-03-08T04:51:26;36.35;;;17.95;;
75655;SDS011;64252;51.094;13.714;2024-03-08T04:53:52;38.60;;;18.98;;
75655;SDS011;64252;51.094;13.714;2024-03-08T04:56:18;43.80;;;20.13;;
75655;SDS011;64252;51.094;13.714;2024-03-08T04:58:47;40.00;;;18.17;;
75655;SDS011;64252;51.094;13.714;2024-03-08T05:01:12;36.47;;;19.08;;
75655;SDS011;64252;51.094;13.714;2024-03-08T05:03:38;41.83;;;18.50;;
75655;SDS011;64252;51.094;13.714;2024-03-08T05:06:04;40.53;;;18.08;;
75655;SDS011;64252;51.094;13.714;2024-03-08T05:08:31;39.08;;;18.20;;
75655;SDS011;64252;51.094;13.714;2024-03-08T05:10:56;36.20;;;17.02;;
75655;SDS011;64252;51.094;13.714;2024-03-08T05:13:22;49.67;;;20.98;;
75655;SDS011;64252;51.094;13.714;2024-03-08T05:15:51;40.03;;;18.95;;
75655;SDS011;64252;51.094;13.714;2024-03-08T05:18:17;36.42;;;18.27;;
75655;SDS011;64252;51.094;13.714;2024-03-08T05:20:42;37.25;;;17.20;;
75655;SDS011;64252;51.094;13.714;2024-03-08T05:23:08;34.60;;;16.88;;
75655;SDS011;64252;51.094;13.714;2024-03-08T05:25:34;40.22;;;18.83;;
75655;SDS011;64252;51.094;13.714;2024-03-08T05:28:00;44.63;;;19.23;;
75655;SDS011;64252;51.094;13.714;2024-03-08T05:30:31;69.40;;;29.52;;
75655;SDS011;64252;51.094;13.714;2024-03-08T05:32:57;55.95;;;24.65;;
75655;SDS011;64252;51.094;13.714;2024-03-08T05:35:22;58.47;;;25.25;;
75655;SDS011;64252;51.094;13.714;2024-03-08T05:37:49;50.28;;;23.20;;
75655;SDS011;64252;51.094;13.714;2024-03-08T05:40:15;48.53;;;21.63;;
75655;SDS011;64252;51.094;13.714;2024-03-08T05:42:40;48.40;;;22.60;;
75655;SDS011;64252;51.094;13.714;2024-03-08T05:45:06;52.03;;;22.80;;
75655;SDS011;64252;51.094;13.714;2024-03-08T05:47:32;50.25;;;20.50;;
75655;SDS011;64252;51.094;13.714;2024-03-08T05:49:58;42.60;;;19.17;;
75655;SDS011;64252;51.094;13.714;2024-03-08T05:52:24;34.92;;;17.02;;
75655;SDS011;64252;51.094;13.714;2024-03-08T05:54:51;46.00;;;19.33;;
75655;SDS011;64252;51.094;13.714;2024-03-08T05:57:17;46.75;;;21.45;;
75655;SDS011;64252;51.094;13.714;2024-03-08T05:59:42;43.60;;;19.77;;
75655;SDS011;64252;51.094;13.714;2024-03-08T06:02:08;40.92;;;17.95;;
75655;SDS011;64252;51.094;13.714;2024-03-08T06:04:34;42.08;;;18.73;;
75655;SDS011;64252;51.094;13.714;2024-03-08T06:06:59;39.50;;;18.30;;
75655;SDS011;64252;51.094;13.714;2024-03-08T06:09:26;43.78;;;20.42;;
75655;SDS011;64252;51.094;13.714;2024-03-08T06:11:51;48.95;;;20.35;;
75655;SDS011;64252;51.094;13.714;2024-03-08T06:14:19;43.75;;;19.58;;
75655;SDS011;64252;51.094;13.714;2024-03-08T06:16:45;42.55;;;19.80;;
75655;SDS011;64252;51.094;13.714;2024-03-08T06:19:12;39.10;;;18.50;;
75655;SDS011;64252;51.094;13.714;2024-03-08T06:21:38;39.55;;;19.00;;
75655;SDS011;64252;51.094;13.714;2024-03-08T06:24:03;42.83;;;17.55;;
75655;SDS011;64252;51.094;13.714;2024-03-08T06:26:29;37.28;;;17.80;;
75655;SDS011;64252;51.094;13.714;2024-03-08T06:28:55;42.67;;;18.83;;
75655;SDS011;64252;51.094;13.714;2024-03-08T06:31:20;39.50;;;18.88;;
75655;SDS011;64252;51.094;13.714;2024-03-08T06:33:46;41.90;;;19.20;;
75655;SDS011;64252;51.094;13.714;2024-03-08T06:36:15;34.70;;;17.65;;
75655;SDS011;64252;51.094;13.714;2024-03-08T06:38:44;38.28;;;17.75;;
75655;SDS011;64252;51.094;13.714;2024-03-08T06:41:11;40.42;;;19.15;;
75655;SDS011;64252;51.094;13.714;2024-03-08T06:43:42;36.80;;;17.55;;
75655;SDS011;64252;51.094;13.714;2024-03-08T06:46:09;38.28;;;17.95;;
75655;SDS011;64252;51.094;13.714;2024-03-08T06:48:35;37.78;;;17.75;;
75655;SDS011;64252;51.094;13.714;2024-03-08T06:51:02;37.05;;;17.15;;
75655;SDS011;64252;51.094;13.714;2024-03-08T06:53:29;34.63;;;16.88;;
75655;SDS011;64252;51.094;13.714;2024-03-08T06:55:54;37.30;;;16.48;;
75655;SDS011;64252;51.094;13.714;2024-03-08T06:58:20;37.15;;;18.60;;
75655;SDS011;64252;51.094;13.714;2024-03-08T07:00:45;34.35;;;15.57;;
75655;SDS011;64252;51.094;13.714;2024-03-08T07:03:11;37.85;;;18.17;;
75655;SDS011;64252;51.094;13.714;2024-03-08T07:05:37;38.95;;;18.30;;
75655;SDS011;64252;51.094;13.714;2024-03-08T07:08:04;35.72;;;17.42;;
75655;SDS011;64252;51.094;13.714;2024-03-08T07:10:32;32.75;;;16.30;;
75655;SDS011;64252;51.094;13.714;2024-03-08T07:12:57;37.47;;;16.98;;
75655;SDS011;64252;51.094;13.714;2024-03-08T07:15:23;35.17;;;17.55;;
75655;SDS011;64252;51.094;13.714;2024-03-08T07:17:49;40.30;;;20.10;;
75655;SDS011;64252;51.094;13.714;2024-03-08T07:20:16;37.50;;;18.77;;
75655;SDS011;64252;51.094;13.714;2024-03-08T07:22:44;39.08;;;18.20;;
75655;SDS011;64252;51.094;13.714;2024-03-08T07:25:13;36.78;;;17.67;;
75655;SDS011;64252;51.094;13.714;2024-03-08T07:27:46;40.53;;;18.88;;
75655;SDS011;64252;51.094;13.714;2024-03-08T07:30:12;44.70;;;21.05;;
75655;SDS011;64252;51.094;13.714;2024-03-08T07:32:58;40.78;;;17.13;;
75655;SDS011;64252;51.094;13.714;2024-03-08T07:35:23;36.60;;;18.08;;
75655;SDS011;64252;51.094;13.714;2024-03-08T07:37:51;37.15;;;18.60;;
75655;SDS011;64252;51.094;13.714;2024-03-08T07:40:20;33.92;;;15.60;;
75655;SDS011;64252;51.094;13.714;2024-03-08T07:42:46;38.10;;;17.52;;
75655;SDS011;64252;51.094;13.714;2024-03-08T07:45:12;36.72;;;17.38;;
75655;SDS011;64252;51.094;13.714;2024-03-08T07:47:38;37.35;;;17.25;;
75655;SDS011;64252;51.094;13.714;2024-03-08T07:50:03;33.63;;;15.38;;
75655;SDS011;64252;51.094;13.714;2024-03-08T07:52:29;31.80;;;15.20;;
75655;SDS011;64252;51.094;13.714;2024-03-08T07:54:55;37.08;;;18.13;;
75655;SDS011;64252;51.094;13.714;2024-03-08T07:57:20;36.72;;;17.45;;
75655;SDS011;64252;51.094;13.714;2024-03-08T07:59:46;36.28;;;16.67;;
75655;SDS011;64252;51.094;13.714;2024-03-08T08:02:11;34.30;;;16.92;;
75655;SDS011;64252;51.094;13.714;2024-03-08T08:04:37;30.20;;;16.00;;
75655;SDS011;64252;51.094;13.714;2024-03-08T08:07:04;38.38;;;16.88;;
75655;SDS011;64252;51.094;13.714;2024-03-08T08:09:30;33.15;;;16.23;;
75655;SDS011;64252;51.094;13.714;2024-03-08T08:12:02;33.22;;;15.52;;
75655;SDS011;64252;51.094;13.714;2024-03-08T08:14:28;38.22;;;17.95;;
75655;SDS011;64252;51.094;13.714;2024-03-08T08:16:54;34.05;;;16.88;;
75655;SDS011;64252;51.094;13.714;2024-03-08T08:19:22;33.92;;;16.80;;
75655;SDS011;64252;51.094;13.714;2024-03-08T08:21:48;35.42;;;19.58;;
75655;SDS011;64252;51.094;13.714;2024-03-08T08:24:14;34.28;;;18.10;;
75655;SDS011;64252;51.094;13.714;2024-03-08T08:26:40;31.88;;;15.90;;
75655;SDS011;64252;51.094;13.714;2024-03-08T08:29:05;35.17;;;16.48;;
75655;SDS011;64252;51.094;13.714;2024-03-08T08:31:31;31.63;;;16.00;;
75655;SDS011;64252;51.094;13.714;2024-03-08T08:33:58;29.75;;;15.95;;
75655;SDS011;64252;51.094;13.714;2024-03-08T08:36:24;34.92;;;17.35;;
75655;SDS011;64252;51.094;13.714;2024-03-08T08:38:49;34.72;;;16.90;;
75655;SDS011;64252;51.094;13.714;2024-03-08T08:41:15;37.25;;;17.63;;
75655;SDS011;64252;51.094;13.714;2024-03-08T08:43:42;30.77;;;15.60;;
75655;SDS011;64252;51.094;13.714;2024-03-08T08:46:11;32.08;;;16.20;;
75655;SDS011;64252;51.094;13.714;2024-03-08T08:48:39;34.58;;;16.58;;
75655;SDS011;64252;51.094;13.714;2024-03-08T08:51:07;29.67;;;15.75;;
75655;SDS011;64252;51.094;13.714;2024-03-08T08:53:38;30.55;;;14.98;;
75655;SDS011;64252;51.094;13.714;2024-03-08T08:56:08;27.35;;;15.02;;
75655;SDS011;64252;51.094;13.714;2024-03-08T08:58:34;26.48;;;14.60;;
75655;SDS011;64252;51.094;13.714;2024-03-08T09:01:00;32.50;;;15.60;;
75655;SDS011;64252;51.094;13.714;2024-03-08T09:03:26;29.40;;;15.30;;
75655;SDS011;64252;51.094;13.714;2024-03-08T09:05:53;31.33;;;15.38;;
75655;SDS011;64252;51.094;13.714;2024-03-08T09:08:19;28.13;;;15.02;;
75655;SDS011;64252;51.094;13.714;2024-03-08T09:10:45;29.33;;;15.00;;
75655;SDS011;64252;51.094;13.714;2024-03-08T09:13:13;27.58;;;14.82;;
75655;SDS011;64252;51.094;13.714;2024-03-08T09:15:39;32.75;;;15.75;;
75655;SDS011;64252;51.094;13.714;2024-03-08T09:18:05;29.05;;;14.07;;
75655;SDS011;64252;51.094;13.714;2024-03-08T09:20:31;28.15;;;13.25;;
75655;SDS011;64252;51.094;13.714;2024-03-08T09:22:57;28.50;;;13.07;;
75655;SDS011;64252;51.094;13.714;2024-03-08T09:25:23;29.00;;;15.65;;
75655;SDS011;64252;51.094;13.714;2024-03-08T09:27:48;26.20;;;13.77;;
75655;SDS011;64252;51.094;13.714;2024-03-08T09:30:15;24.73;;;13.35;;
75655;SDS011;64252;51.094;13.714;2024-03-08T09:32:41;25.25;;;12.90;;
75655;SDS011;64252;51.094;13.714;2024-03-08T09:35:06;25.13;;;13.38;;
75655;SDS011;64252;51.094;13.714;2024-03-08T09:37:35;23.00;;;11.82;;
75655;SDS011;64252;51.094;13.714;2024-03-08T09:40:01;24.00;;;12.05;;
75655;SDS011;64252;51.094;13.714;2024-03-08T09:42:30;24.27;;;11.80;;
75655;SDS011;64252;51.094;13.714;2024-03-08T09:44:57;25.02;;;12.77;;
75655;SDS011;64252;51.094;13.714;2024-03-08T09:47:24;22.63;;;12.05;;
75655;SDS011;64252;51.094;13.714;2024-03-08T09:49:54;23.27;;;11.95;;
75655;SDS011;64252;51.094;13.714;2024-03-08T09:52:19;22.90;;;11.65;;
75655;SDS011;64252;51.094;13.714;2024-03-08T09:54:45;20.35;;;10.93;;
75655;SDS011;64252;51.094;13.714;2024-03-08T09:57:11;25.05;;;12.20;;
75655;SDS011;64252;51.094;13.714;2024-03-08T09:59:37;23.33;;;12.85;;
75655;SDS011;64252;51.094;13.714;2024-03-08T10:02:02;20.45;;;11.07;;
75655;SDS011;64252;51.094;13.714;2024-03-08T10:04:28;21.42;;;11.50;;
75655;SDS011;64252;51.094;13.714;2024-03-08T10:06:59;18.80;;;10.55;;
75655;SDS011;64252;51.094;13.714;2024-03-08T10:09:26;20.65;;;11.15;;
75655;SDS011;64252;51.094;13.714;2024-03-08T10:11:56;22.95;;;10.85;;
75655;SDS011;64252;51.094;13.714;2024-03-08T10:14:23;20.40;;;10.93;;
75655;SDS011;64252;51.094;13.714;2024-03-08T10:16:49;19.40;;;10.63;;
75655;SDS011;64252;51.094;13.714;2024-03-08T10:19:15;22.15;;;11.32;;
75655;SDS011;64252;51.094;13.714;2024-03-08T10:21:51;19.60;;;10.32;;
75655;SDS011;64252;51.094;13.714;2024-03-08T10:24:19;20.67;;;10.23;;
75655;SDS011;64252;51.094;13.714;2024-03-08T10:26:44;23.77;;;10.90;;
75655;SDS011;64252;51.094;13.714;2024-03-08T10:29:11;20.52;;;10.65;;
75655;SDS011;64252;51.094;13.714;2024-03-08T10:31:43;21.80;;;11.13;;
75655;SDS011;64252;51.094;13.714;2024-03-08T10:34:09;19.08;;;10.93;;
75655;SDS011;64252;51.094;13.714;2024-03-08T10:36:35;19.58;;;11.15;;
75655;SDS011;64252;51.094;13.714;2024-03-08T10:39:03;18.70;;;10.30;;
75655;SDS011;64252;51.094;13.714;2024-03-08T10:41:33;19.55;;;10.25;;
75655;SDS011;64252;51.094;13.714;2024-03-08T10:47:29;21.30;;;10.90;;
75655;SDS011;64252;51.094;13.714;2024-03-08T10:50:01;20.45;;;11.80;;
75655;SDS011;64252;51.094;13.714;2024-03-08T10:52:32;19.17;;;10.20;;
75655;SDS011;64252;51.094;13.714;2024-03-08T10:54:59;21.40;;;11.85;;
75655;SDS011;64252;51.094;13.714;2024-03-08T10:57:27;23.17;;;11.68;;
75655;SDS011;64252;51.094;13.714;2024-03-08T10:59:52;22.13;;;11.00;;
75655;SDS011;64252;51.094;13.714;2024-03-08T11:02:19;24.70;;;12.02;;
75655;SDS011;64252;51.094;13.714;2024-03-08T11:04:46;21.10;;;10.57;;
75655;SDS011;64252;51.094;13.714;2024-03-08T11:07:14;21.08;;;11.98;;
75655;SDS011;64252;51.094;13.714;2024-03-08T11:09:44;21.52;;;11.52;;
75655;SDS011;64252;51.094;13.714;2024-03-08T11:14:54;22.17;;;11.43;;
75655;SDS011;64252;51.094;13.714;2024-03-08T11:17:22;20.45;;;10.90;;
75655;SDS011;64252;51.094;13.714;2024-03-08T11:19:52;21.08;;;10.13;;
75655;SDS011;64252;51.094;13.714;2024-03-08T11:22:28;22.38;;;10.35;;
75655;SDS011;64252;51.094;13.714;2024-03-08T11:25:07;21.33;;;10.73;;
75655;SDS011;64252;51.094;13.714;2024-03-08T11:27:37;22.50;;;11.98;;
75655;SDS011;64252;51.094;13.714;2024-03-08T11:30:06;20.70;;;10.57;;
75655;SDS011;64252;51.094;13.714;2024-03-08T11:32:36;19.58;;;11.38;;
75655;SDS011;64252;51.094;13.714;2024-03-08T11:35:06;21.30;;;11.20;;
75655;SDS011;64252;51.094;13.714;2024-03-08T11:37:43;19.67;;;10.48;;
75655;SDS011;64252;51.094;13.714;2024-03-08T11:40:13;18.60;;;10.15;;
75655;SDS011;64252;51.094;13.714;2024-03-08T11:42:44;18.95;;;10.25;;
75655;SDS011;64252;51.094;13.714;2024-03-08T11:45:12;17.88;;;10.50;;
75655;SDS011;64252;51.094;13.714;2024-03-08T11:47:41;19.92;;;10.35;;
75655;SDS011;64252;51.094;13.714;2024-03-08T11:50:07;18.23;;;9.52;;
75655;SDS011;64252;51.094;13.714;2024-03-08T11:52:36;17.42;;;9.77;;
75655;SDS011;64252;51.094;13.714;2024-03-08T11:55:04;18.42;;;9.70;;
75655;SDS011;64252;51.094;13.714;2024-03-08T11:57:30;16.50;;;9.45;;
75655;SDS011;64252;51.094;13.714;2024-03-08T11:59:57;21.83;;;10.07;;
75655;SDS011;64252;51.094;13.714;2024-03-08T12:02:33;18.20;;;9.95;;
75655;SDS011;64252;51.094;13.714;2024-03-08T12:05:03;16.50;;;9.02;;
75655;SDS011;64252;51.094;13.714;2024-03-08T12:07:31;17.65;;;9.75;;
75655;SDS011;64252;51.094;13.714;2024-03-08T12:12:47;19.33;;;9.50;;
75655;SDS011;64252;51.094;13.714;2024-03-08T12:15:15;14.93;;;8.63;;
75655;SDS011;64252;51.094;13.714;2024-03-08T12:17:41;14.77;;;8.15;;
75655;SDS011;64252;51.094;13.714;2024-03-08T12:20:11;16.15;;;7.57;;
75655;SDS011;64252;51.094;13.714;2024-03-08T12:22:40;15.77;;;8.55;;
75655;SDS011;64252;51.094;13.714;2024-03-08T12:25:07;15.15;;;7.80;;
75655;SDS011;64252;51.094;13.714;2024-03-08T12:27:36;14.63;;;7.95;;
75655;SDS011;64252;51.094;13.714;2024-03-08T12:33:00;13.82;;;7.78;;
75655;SDS011;64252;51.094;13.714;2024-03-08T12:35:26;15.07;;;8.95;;
75655;SDS011;64252;51.094;13.714;2024-03-08T12:37:54;15.48;;;7.68;;
75655;SDS011;64252;51.094;13.714;2024-03-08T12:40:27;13.82;;;7.68;;
75655;SDS011;64252;51.094;13.714;2024-03-08T12:42:57;15.85;;;8.68;;
75655;SDS011;64252;51.094;13.714;2024-03-08T12:45:23;15.63;;;8.40;;
75655;SDS011;64252;51.094;13.714;2024-03-08T12:47:52;13.25;;;7.88;;
75655;SDS011;64252;51.094;13.714;2024-03-08T12:50:20;15.20;;;8.52;;
75655;SDS011;64252;51.094;13.714;2024-03-08T12:52:47;13.20;;;7.68;;
75655;SDS011;64252;51.094;13.714;2024-03-08T12:55:18;13.93;;;6.85;;
75655;SDS011;64252;51.094;13.714;2024-03-08T12:57:43;14.85;;;7.72;;
75655;SDS011;64252;51.094;13.714;2024-03-08T13:00:10;14.90;;;7.32;;
75655;SDS011;64252;51.094;13.714;2024-03-08T13:02:46;12.30;;;7.30;;
75655;SDS011;64252;51.094;13.714;2024-03-08T13:05:12;13.30;;;7.50;;
75655;SDS011;64252;51.094;13.714;2024-03-08T13:07:39;13.80;;;8.05;;
75655;SDS011;64252;51.094;13.714;2024-03-08T13:10:07;12.20;;;6.82;;
75655;SDS011;64252;51.094;13.714;2024-03-08T13:12:34;12.95;;;7.90;;
75655;SDS011;64252;51.094;13.714;2024-03-08T13:15:03;14.60;;;7.60;;
75655;SDS011;64252;51.094;13.714;2024-03-08T13:17:30;15.18;;;8.15;;
75655;SDS011;64252;51.094;13.714;2024-03-08T13:19:55;15.60;;;7.90;;
75655;SDS011;64252;51.094;13.714;2024-03-08T13:22:22;14.65;;;7.88;;
75655;SDS011;64252;51.094;13.714;2024-03-08T13:24:49;14.73;;;8.00;;
75655;SDS011;64252;51.094;13.714;2024-03-08T13:27:17;13.98;;;7.72;;
75655;SDS011;64252;51.094;13.714;2024-03-08T13:29:50;14.45;;;7.57;;
75655;SDS011;64252;51.094;13.714;2024-03-08T13:32:16;13.73;;;7.47;;
75655;SDS011;64252;51.094;13.714;2024-03-08T13:34:45;14.82;;;8.48;;
75655;SDS011;64252;51.094;13.714;2024-03-08T13:37:12;13.73;;;7.35;;
75655;SDS011;64252;51.094;13.714;2024-03-08T13:39:41;11.93;;;7.10;;
75655;SDS011;64252;51.094;13.714;2024-03-08T13:42:15;11.10;;;6.57;;
75655;SDS011;64252;51.094;13.714;2024-03-08T13:44:45;12.73;;;6.47;;
75655;SDS011;64252;51.094;13.714;2024-03-08T13:47:12;13.80;;;6.82;;
75655;SDS011;64252;51.094;13.714;2024-03-08T13:49:39;11.85;;;6.10;;
75655;SDS011;64252;51.094;13.714;2024-03-08T13:52:05;12.20;;;6.85;;
75655;SDS011;64252;51.094;13.714;2024-03-08T13:54:30;13.25;;;6.63;;
75655;SDS011;64252;51.094;13.714;2024-03-08T13:56:57;12.93;;;6.75;;
75655;SDS011;64252;51.094;13.714;2024-03-08T13:59:23;11.40;;;6.40;;
75655;SDS011;64252;51.094;13.714;2024-03-08T14:01:49;11.23;;;6.03;;
75655;SDS011;64252;51.094;13.714;2024-03-08T14:04:15;14.82;;;6.43;;
75655;SDS011;64252;51.094;13.714;2024-03-08T14:06:43;12.20;;;6.57;;
75655;SDS011;64252;51.094;13.714;2024-03-08T14:09:12;12.65;;;6.60;;
75655;SDS011;64252;51.094;13.714;2024-03-08T14:11:45;11.75;;;6.55;;
75655;SDS011;64252;51.094;13.714;2024-03-08T14:14:11;12.27;;;6.93;;
75655;SDS011;64252;51.094;13.714;2024-03-08T14:16:38;12.32;;;6.10;;
75655;SDS011;64252;51.094;13.714;2024-03-08T14:19:04;11.20;;;6.40;;
75655;SDS011;64252;51.094;13.714;2024-03-08T14:21:33;11.52;;;6.32;;
75655;SDS011;64252;51.094;13.714;2024-03-08T14:23:59;13.02;;;7.13;;
75655;SDS011;64252;51.094;13.714;2024-03-08T14:26:25;14.25;;;7.13;;
75655;SDS011;64252;51.094;13.714;2024-03-08T14:28:51;11.40;;;6.88;;
75655;SDS011;64252;51.094;13.714;2024-03-08T14:31:22;12.45;;;6.30;;